createdAt,value
2023-05-14T00:00:26.752Z,4.90
2023-05-14T00:01:30.375Z,4.30
2023-05-14T00:02:33.526Z,5.70
2023-05-14T00:03:37.473Z,4.60
2023-05-14T00:04:40.947Z,5.20
2023-05-14T00:05:52.423Z,4.80
2023-05-14T00:06:55.963Z,4.70
2023-05-14T00:07:59.300Z,4.90
2023-05-14T00:09:01.885Z,4.00
2023-05-14T00:10:05.437Z,4.80
2023-05-14T00:11:08.521Z,4.30
2023-05-14T00:12:11.498Z,4.90
2023-05-14T00:13:14.270Z,5.00
2023-05-14T00:14:17.173Z,4.90
2023-05-14T00:15:20.504Z,4.45
2023-05-14T00:16:24.049Z,5.40
2023-05-14T00:17:28.057Z,4.30
2023-05-14T00:18:32.036Z,4.60
2023-05-14T00:19:34.819Z,5.60
2023-05-14T00:20:37.771Z,4.18
2023-05-14T00:21:40.498Z,4.82
2023-05-14T00:22:44.188Z,5.20
2023-05-14T00:23:47.031Z,4.27
2023-05-14T00:24:49.796Z,4.60
2023-05-14T00:25:52.553Z,4.27
2023-05-14T00:26:56.017Z,4.91
2023-05-14T00:27:58.669Z,5.70
2023-05-14T00:29:11.496Z,4.60
2023-05-14T00:30:16.401Z,3.80
2023-05-14T00:31:19.107Z,3.20
2023-05-14T00:32:21.763Z,4.30
2023-05-14T00:33:24.747Z,3.73
2023-05-14T00:34:27.963Z,4.20
2023-05-14T00:35:30.540Z,4.90
2023-05-14T00:36:34.819Z,5.00
2023-05-14T00:37:37.952Z,5.30
2023-05-14T00:38:41.546Z,5.40
2023-05-14T00:39:44.923Z,4.40
2023-05-14T00:40:49.751Z,5.00
2023-05-14T00:41:53.388Z,4.60
2023-05-14T00:42:56.164Z,4.80
2023-05-14T00:43:59.276Z,4.82
2023-05-14T00:45:02.751Z,4.80
2023-05-14T00:46:06.374Z,4.00
2023-05-14T00:47:09.499Z,4.00
2023-05-14T00:48:12.385Z,4.50
2023-05-14T00:49:15.401Z,5.45
2023-05-14T00:50:18.364Z,4.40
2023-05-14T00:51:22.552Z,4.00
2023-05-14T00:52:25.292Z,4.40
2023-05-14T00:53:27.829Z,4.50
2023-05-14T00:54:30.621Z,3.40
2023-05-14T00:55:33.859Z,4.80
2023-05-14T00:56:37.885Z,4.50
2023-05-14T00:57:41.248Z,4.50
2023-05-14T00:58:44.245Z,4.30
2023-05-14T00:59:47.841Z,4.18
2023-05-14T01:02:04.594Z,4.90
2023-05-14T01:03:07.721Z,4.20
2023-05-14T01:04:11.240Z,4.80
2023-05-14T01:05:14.608Z,4.30
2023-05-14T01:06:32.861Z,4.70
2023-05-14T01:07:58.786Z,4.70
2023-05-14T01:09:07.980Z,3.80
2023-05-14T01:10:15.365Z,4.20
2023-05-14T01:11:31.094Z,5.00
2023-05-14T01:12:56.208Z,3.80
2023-05-14T01:14:31.130Z,3.70
2023-05-14T01:15:35.153Z,3.90
2023-05-14T01:16:38.980Z,4.80
2023-05-14T01:18:59.320Z,4.60
2023-05-14T01:20:03.475Z,3.90
2023-05-14T01:21:08.729Z,3.80
2023-05-14T01:22:11.994Z,0.50
2023-05-14T01:23:14.587Z,4.64
2023-05-14T01:24:17.695Z,4.55
2023-05-14T01:25:22.244Z,4.27
2023-05-14T01:26:25.857Z,5.00
2023-05-14T01:27:41.843Z,4.64
2023-05-14T01:28:46.091Z,3.70
2023-05-14T01:31:12.502Z,4.40
2023-05-14T01:32:15.056Z,4.20
2023-05-14T01:33:17.981Z,4.20
2023-05-14T01:34:22.110Z,4.70
2023-05-14T01:35:28.782Z,3.70
2023-05-14T01:36:32.449Z,4.20
2023-05-14T01:37:35.130Z,3.70
2023-05-14T01:38:38.128Z,3.20
2023-05-14T01:39:41.065Z,3.60
2023-05-14T01:40:44.586Z,3.80
2023-05-14T01:41:47.769Z,4.50
2023-05-14T01:44:04.873Z,5.40
2023-05-14T01:45:09.052Z,4.60
2023-05-14T01:46:12.288Z,4.50
2023-05-14T01:47:16.395Z,4.90
2023-05-14T01:48:19.083Z,4.80
2023-05-14T01:49:22.184Z,4.70
2023-05-14T01:50:28.225Z,4.30
2023-05-14T01:51:31.390Z,4.50
2023-05-14T01:52:34.431Z,3.50
2023-05-14T01:53:37.905Z,3.80
2023-05-14T01:54:42.254Z,4.80
2023-05-14T01:55:45.054Z,4.40
2023-05-14T01:56:48.258Z,4.55
2023-05-14T01:57:51.975Z,4.10
2023-05-14T01:58:56.580Z,4.30
2023-05-14T01:59:59.687Z,4.50
2023-05-14T02:01:04.457Z,4.00
2023-05-14T02:02:07.378Z,4.70
2023-05-14T02:03:11.650Z,2.90
2023-05-14T02:04:15.835Z,4.10
2023-05-14T02:05:18.580Z,4.45
2023-05-14T02:06:22.798Z,4.20
2023-05-14T02:07:25.411Z,5.00
2023-05-14T02:08:28.813Z,4.80
2023-05-14T02:09:31.424Z,4.70
2023-05-14T02:10:35.029Z,4.00
2023-05-14T02:11:52.698Z,3.90
2023-05-14T02:12:56.467Z,3.60
2023-05-14T02:13:59.804Z,4.50
2023-05-14T02:15:03.415Z,4.40
2023-05-14T02:16:06.858Z,4.20
2023-05-14T02:17:09.949Z,4.40
2023-05-14T02:18:12.926Z,4.00
2023-05-14T02:19:15.682Z,3.91
2023-05-14T02:20:18.797Z,3.82
2023-05-14T02:21:21.561Z,5.00
2023-05-14T02:22:25.463Z,4.70
2023-05-14T02:23:40.471Z,3.40
2023-05-14T02:24:34.289Z,3.80
2023-05-14T02:25:38.150Z,4.70
2023-05-14T02:26:42.585Z,2.90
2023-05-14T02:27:46.423Z,3.70
2023-05-14T02:28:49.212Z,4.09
2023-05-14T02:29:54.364Z,4.00
2023-05-14T02:31:00.793Z,3.00
2023-05-14T02:32:05.538Z,3.90
2023-05-14T02:33:09.082Z,4.00
2023-05-14T02:34:11.908Z,4.00
2023-05-14T02:35:14.734Z,4.55
2023-05-14T02:36:18.039Z,3.80
2023-05-14T02:37:22.174Z,3.90
2023-05-14T02:38:26.019Z,4.50
2023-05-14T02:39:28.941Z,3.60
2023-05-14T02:40:32.270Z,4.20
2023-05-14T02:41:35.164Z,3.10
2023-05-14T02:42:37.645Z,4.00
2023-05-14T02:43:40.957Z,3.90
2023-05-14T02:44:43.634Z,2.00
2023-05-14T02:45:46.908Z,3.30
2023-05-14T02:46:49.824Z,4.64
2023-05-14T02:47:53.508Z,2.80
2023-05-14T02:48:56.224Z,3.80
2023-05-14T02:49:59.644Z,4.10
2023-05-14T02:51:03.843Z,4.70
2023-05-14T02:52:07.041Z,3.30
2023-05-14T02:53:10.306Z,2.60
2023-05-14T02:54:16.160Z,4.30
2023-05-14T02:55:19.066Z,3.90
2023-05-14T02:56:21.968Z,4.50
2023-05-14T02:57:25.165Z,4.70
2023-05-14T02:58:28.433Z,1.18
2023-05-14T02:59:31.841Z,4.30
2023-05-14T03:00:35.331Z,3.80
2023-05-14T03:01:39.161Z,2.80
2023-05-14T03:02:42.968Z,4.40
2023-05-14T03:03:46.412Z,3.60
2023-05-14T03:04:49.989Z,3.20
2023-05-14T03:05:53.728Z,3.80
2023-05-14T03:08:08.617Z,3.60
2023-05-14T03:09:12.355Z,3.40
2023-05-14T03:10:16.395Z,3.70
2023-05-14T03:11:19.606Z,4.40
2023-05-14T03:12:23.314Z,3.40
2023-05-14T03:13:25.988Z,3.50
2023-05-14T03:14:30.186Z,3.40
2023-05-14T03:15:34.716Z,4.30
2023-05-14T03:16:40.522Z,3.20
2023-05-14T03:17:43.392Z,3.60
2023-05-14T03:18:46.581Z,3.40
2023-05-14T03:19:49.510Z,3.50
2023-05-14T03:20:52.686Z,3.20
2023-05-14T03:21:56.385Z,3.50
2023-05-14T03:22:59.195Z,2.45
2023-05-14T03:24:02.243Z,4.20
2023-05-14T03:25:05.738Z,3.27
2023-05-14T03:26:08.766Z,3.70
2023-05-14T03:27:11.720Z,3.40
2023-05-14T03:28:14.569Z,3.20
2023-05-14T03:29:17.517Z,3.50
2023-05-14T03:30:20.872Z,3.60
2023-05-14T03:31:25.144Z,3.20
2023-05-14T03:32:29.582Z,3.90
2023-05-14T03:33:33.495Z,2.20
2023-05-14T03:34:36.552Z,3.70
2023-05-14T03:35:39.448Z,2.64
2023-05-14T03:36:42.434Z,3.50
2023-05-14T03:37:45.131Z,3.36
2023-05-14T03:38:48.842Z,4.70
2023-05-14T03:41:03.481Z,3.40
2023-05-14T03:42:07.151Z,4.00
2023-05-14T03:43:10.932Z,3.90
2023-05-14T03:44:13.713Z,3.10
2023-05-14T03:45:16.451Z,3.18
2023-05-14T03:46:19.477Z,4.09
2023-05-14T03:47:22.190Z,2.70
2023-05-14T03:48:25.815Z,4.00
2023-05-14T03:49:28.829Z,4.10
2023-05-14T03:50:34.097Z,3.50
2023-05-14T03:51:36.935Z,3.00
2023-05-14T03:52:41.582Z,3.40
2023-05-14T03:53:44.796Z,1.90
2023-05-14T03:54:48.315Z,3.90
2023-05-14T03:55:51.151Z,1.73
2023-05-14T03:56:54.118Z,4.45
2023-05-14T03:57:57.648Z,3.27
2023-05-14T03:59:00.493Z,4.20
2023-05-14T04:00:04.793Z,3.55
2023-05-14T04:01:10.223Z,3.80
2023-05-14T04:02:13.871Z,3.91
2023-05-14T04:03:16.950Z,4.10
2023-05-14T04:04:20.575Z,2.80
2023-05-14T04:05:23.848Z,2.91
2023-05-14T04:06:27.282Z,4.00
2023-05-14T04:07:31.004Z,3.60
2023-05-14T04:08:34.771Z,4.20
2023-05-14T04:09:37.371Z,2.70
2023-05-14T04:10:40.278Z,4.27
2023-05-14T04:11:42.966Z,2.50
2023-05-14T04:12:46.285Z,3.40
2023-05-14T04:13:50.775Z,3.20
2023-05-14T04:14:53.530Z,4.10
2023-05-14T04:15:58.185Z,3.60
2023-05-14T04:17:01.349Z,4.00
2023-05-14T04:18:06.481Z,3.10
2023-05-14T04:19:09.880Z,4.30
2023-05-14T04:20:13.362Z,3.40
2023-05-14T04:21:17.048Z,3.60
2023-05-14T04:22:19.826Z,3.90
2023-05-14T04:23:22.364Z,4.20
2023-05-14T04:24:26.413Z,2.90
2023-05-14T04:25:30.016Z,3.80
2023-05-14T04:26:34.867Z,3.20
2023-05-14T04:27:37.577Z,3.70
2023-05-14T04:28:40.904Z,4.00
2023-05-14T04:29:43.611Z,3.80
2023-05-14T04:30:48.065Z,3.60
2023-05-14T04:31:50.773Z,3.40
2023-05-14T04:32:54.227Z,4.36
2023-05-14T04:33:57.301Z,3.60
2023-05-14T04:35:01.052Z,4.09
2023-05-14T04:36:05.215Z,3.40
2023-05-14T04:38:21.285Z,0.60
2023-05-14T04:39:24.748Z,3.40
2023-05-14T04:40:28.071Z,5.00
2023-05-14T04:41:30.760Z,3.80
2023-05-14T04:42:33.579Z,3.73
2023-05-14T04:43:36.718Z,4.60
2023-05-14T04:44:41.473Z,3.70
2023-05-14T04:45:45.040Z,4.90
2023-05-14T04:46:48.764Z,3.60
2023-05-14T04:47:51.609Z,4.00
2023-05-14T04:48:54.383Z,4.91
2023-05-14T04:49:57.372Z,4.80
2023-05-14T04:51:01.146Z,4.30
2023-05-14T04:52:05.269Z,2.00
2023-05-14T04:53:08.341Z,4.30
2023-05-14T04:54:12.801Z,4.10
2023-05-14T04:55:15.458Z,4.50
2023-05-14T04:56:18.272Z,5.73
2023-05-14T04:57:21.244Z,4.73
2023-05-14T04:58:24.067Z,4.45
2023-05-14T05:00:39.542Z,4.90
2023-05-14T05:01:42.296Z,4.30
2023-05-14T05:02:45.950Z,4.45
2023-05-14T05:03:48.669Z,5.10
2023-05-14T05:04:51.733Z,4.36
2023-05-14T05:05:54.200Z,5.30
2023-05-14T05:06:56.833Z,4.90
2023-05-14T05:07:59.379Z,5.70
2023-05-14T05:09:02.466Z,3.00
2023-05-14T05:10:07.040Z,5.20
2023-05-14T05:11:09.725Z,5.00
2023-05-14T05:12:12.541Z,5.00
2023-05-14T05:13:16.506Z,5.30
2023-05-14T05:14:19.187Z,6.10
2023-05-14T05:15:21.594Z,5.20
2023-05-14T05:16:24.592Z,5.91
2023-05-14T05:17:29.708Z,5.00
2023-05-14T05:18:32.413Z,5.40
2023-05-14T05:19:43.838Z,6.10
2023-05-14T05:20:41.671Z,5.40
2023-05-14T05:21:45.265Z,5.10
2023-05-14T05:22:47.879Z,0.00
2023-05-14T05:23:50.670Z,5.27
2023-05-14T05:24:54.196Z,5.00
2023-05-14T05:25:57.364Z,4.80
2023-05-14T05:27:00.691Z,4.40
2023-05-14T05:28:03.521Z,6.09
2023-05-14T05:29:08.954Z,5.90
2023-05-14T05:30:13.379Z,3.30
2023-05-14T05:31:18.256Z,5.80
2023-05-14T05:32:21.740Z,5.00
2023-05-14T05:33:25.914Z,5.10
2023-05-14T05:34:28.826Z,4.20
2023-05-14T05:35:32.180Z,5.50
2023-05-14T05:36:36.589Z,5.00
2023-05-14T05:37:39.179Z,4.80
2023-05-14T05:38:41.700Z,5.80
2023-05-14T05:39:44.450Z,6.40
2023-05-14T05:40:47.637Z,5.00
2023-05-14T05:41:50.651Z,5.50
2023-05-14T05:42:53.152Z,5.64
2023-05-14T05:43:55.672Z,6.20
2023-05-14T05:44:59.499Z,5.55
2023-05-14T05:46:02.377Z,5.80
2023-05-14T05:47:06.193Z,5.50
2023-05-14T05:48:08.837Z,5.20
2023-05-14T05:49:12.591Z,5.50
2023-05-14T05:50:18.431Z,3.30
2023-05-14T05:51:21.795Z,4.80
2023-05-14T05:52:24.678Z,5.20
2023-05-14T05:53:27.409Z,6.00
2023-05-14T05:54:31.706Z,3.91
2023-05-14T05:55:35.095Z,4.60
2023-05-14T05:56:38.997Z,6.10
2023-05-14T05:57:42.050Z,6.40
2023-05-14T05:58:45.268Z,5.30
2023-05-14T05:59:48.886Z,5.10
2023-05-14T06:00:52.813Z,4.40
2023-05-14T06:01:57.474Z,5.90
2023-05-14T06:03:00.893Z,6.60
2023-05-14T06:04:05.768Z,4.82
2023-05-14T06:05:12.090Z,4.90
2023-05-14T06:06:15.074Z,5.30
2023-05-14T06:07:17.727Z,5.73
2023-05-14T06:08:21.118Z,5.18
2023-05-14T06:10:36.876Z,5.70
2023-05-14T06:11:40.783Z,6.10
2023-05-14T06:12:43.331Z,5.50
2023-05-14T06:13:47.204Z,5.80
2023-05-14T06:14:49.820Z,5.10
2023-05-14T06:15:53.210Z,5.10
2023-05-14T06:16:56.828Z,5.00
2023-05-14T06:18:00.172Z,6.40
2023-05-14T06:19:03.537Z,6.50
2023-05-14T06:20:08.328Z,4.00
2023-05-14T06:21:11.002Z,5.10
2023-05-14T06:22:15.706Z,6.00
2023-05-14T06:23:18.787Z,5.10
2023-05-14T06:24:22.652Z,5.50
2023-05-14T06:25:26.990Z,5.40
2023-05-14T06:26:31.165Z,5.40
2023-05-14T06:27:34.807Z,3.70
2023-05-14T06:28:38.053Z,5.80
2023-05-14T06:29:41.576Z,5.20
2023-05-14T06:30:44.603Z,5.40
2023-05-14T06:31:47.931Z,6.18
2023-05-14T06:32:51.297Z,6.60
2023-05-14T06:33:55.065Z,5.20
2023-05-14T06:34:58.301Z,6.20
2023-05-14T06:36:04.560Z,6.10
2023-05-14T06:37:07.526Z,5.20
2023-05-14T06:38:10.122Z,5.64
2023-05-14T06:39:12.785Z,6.20
2023-05-14T06:40:18.401Z,5.90
2023-05-14T06:41:22.050Z,6.10
2023-05-14T06:42:26.214Z,4.20
2023-05-14T06:43:29.232Z,6.40
2023-05-14T06:44:31.912Z,6.60
2023-05-14T06:45:36.455Z,6.50
2023-05-14T06:46:39.819Z,5.50
2023-05-14T06:47:47.177Z,7.40
2023-05-14T06:48:50.392Z,6.60
2023-05-14T06:49:53.229Z,6.50
2023-05-14T06:50:57.371Z,5.60
2023-05-14T06:52:00.260Z,6.20
2023-05-14T06:53:02.962Z,6.27
2023-05-14T06:54:06.192Z,5.60
2023-05-14T06:55:10.049Z,5.40
2023-05-14T06:56:14.166Z,5.50
2023-05-14T06:57:18.318Z,6.30
2023-05-14T06:59:32.657Z,6.90
2023-05-14T07:00:36.436Z,5.00
2023-05-14T07:01:40.124Z,4.00
2023-05-14T07:02:43.346Z,5.90
2023-05-14T07:03:46.754Z,5.30
2023-05-14T07:04:49.674Z,5.50
2023-05-14T07:05:53.376Z,6.30
2023-05-14T07:08:07.781Z,6.30
2023-05-14T07:09:11.236Z,6.10
2023-05-14T07:10:14.910Z,5.90
2023-05-14T07:11:18.377Z,6.60
2023-05-14T07:12:21.704Z,6.70
2023-05-14T07:13:27.721Z,5.90
2023-05-14T07:14:30.100Z,6.10
2023-05-14T07:15:32.932Z,6.50
2023-05-14T07:16:38.456Z,6.18
2023-05-14T07:17:42.796Z,6.10
2023-05-14T07:18:45.657Z,6.30
2023-05-14T07:19:49.703Z,7.20
2023-05-14T07:20:52.464Z,6.00
2023-05-14T07:21:57.449Z,5.40
2023-05-14T07:23:00.025Z,6.00
2023-05-14T07:24:03.634Z,5.10
2023-05-14T07:25:07.132Z,4.90
2023-05-14T07:26:10.528Z,6.40
2023-05-14T07:27:13.069Z,4.40
2023-05-14T07:28:15.611Z,6.30
2023-05-14T07:29:18.256Z,6.50
2023-05-14T07:30:21.314Z,5.36
2023-05-14T07:31:24.132Z,5.90
2023-05-14T07:32:27.969Z,5.55
2023-05-14T07:33:31.033Z,6.00
2023-05-14T07:34:33.758Z,6.30
2023-05-14T07:35:37.164Z,6.90
2023-05-14T07:36:42.110Z,6.30
2023-05-14T07:37:44.795Z,6.20
2023-05-14T07:38:48.044Z,5.90
2023-05-14T07:39:52.154Z,6.90
2023-05-14T07:40:55.862Z,6.30
2023-05-14T07:42:00.412Z,5.50
2023-05-14T07:43:02.980Z,5.80
2023-05-14T07:44:05.518Z,5.00
2023-05-14T07:45:09.353Z,6.00
2023-05-14T07:46:13.035Z,5.20
2023-05-14T07:47:16.622Z,6.80
2023-05-14T07:48:19.542Z,5.60
2023-05-14T07:49:22.715Z,5.27
2023-05-14T07:50:25.846Z,5.60
2023-05-14T07:51:29.591Z,5.60
2023-05-14T07:52:32.217Z,6.20
2023-05-14T07:53:35.869Z,6.20
2023-05-14T07:54:38.786Z,5.91
2023-05-14T07:55:44.176Z,6.27
2023-05-14T07:56:47.092Z,6.30
2023-05-14T07:57:50.298Z,6.45
2023-05-14T07:58:58.724Z,5.50
2023-05-14T08:00:01.423Z,5.30
2023-05-14T08:01:06.588Z,5.82
2023-05-14T08:02:12.370Z,6.00
2023-05-14T08:03:16.880Z,6.00
2023-05-14T08:04:19.961Z,5.50
2023-05-14T08:05:23.658Z,5.20
2023-05-14T08:06:27.622Z,5.50
2023-05-14T08:07:30.805Z,5.40
2023-05-14T08:08:33.830Z,5.30
2023-05-14T08:09:37.422Z,5.80
2023-05-14T08:10:40.426Z,6.20
2023-05-14T08:11:43.373Z,6.70
2023-05-14T08:12:45.969Z,5.70
2023-05-14T08:13:48.717Z,5.73
2023-05-14T08:14:52.028Z,5.90
2023-05-14T08:15:55.535Z,7.10
2023-05-14T08:16:59.365Z,6.90
2023-05-14T08:18:04.136Z,6.30
2023-05-14T08:19:07.867Z,7.00
2023-05-14T08:20:12.092Z,7.40
2023-05-14T08:21:16.483Z,8.20
2023-05-14T08:22:21.842Z,7.70
2023-05-14T08:23:25.877Z,7.20
2023-05-14T08:24:29.815Z,7.90
2023-05-14T08:25:33.645Z,4.10
2023-05-14T08:26:42.828Z,7.90
2023-05-14T08:27:46.856Z,7.90
2023-05-14T08:28:49.810Z,6.10
2023-05-14T08:29:53.029Z,7.90
2023-05-14T08:30:56.199Z,6.70
2023-05-14T08:32:00.335Z,7.36
2023-05-14T08:33:04.063Z,4.80
2023-05-14T08:34:07.245Z,6.70
2023-05-14T08:36:27.122Z,7.70
2023-05-14T08:37:29.766Z,8.10
2023-05-14T08:38:34.086Z,7.30
2023-05-14T08:39:38.560Z,8.50
2023-05-14T08:40:41.133Z,2.60
2023-05-14T08:41:44.026Z,8.10
2023-05-14T08:42:47.148Z,7.50
2023-05-14T08:44:09.753Z,7.90
2023-05-14T08:45:20.020Z,8.60
2023-05-14T08:46:23.516Z,8.60
2023-05-14T08:48:41.351Z,9.30
2023-05-14T08:49:46.509Z,9.30
2023-05-14T08:50:51.536Z,8.00
2023-05-14T08:51:55.205Z,10.10
2023-05-14T08:52:58.149Z,8.80
2023-05-14T08:54:02.059Z,8.90
2023-05-14T08:55:06.002Z,8.10
2023-05-14T08:56:09.314Z,8.10
2023-05-14T08:57:12.806Z,8.30
2023-05-14T08:58:15.714Z,9.10
2023-05-14T08:59:18.930Z,9.09
2023-05-14T09:00:23.172Z,5.90
2023-05-14T09:01:26.209Z,9.50
2023-05-14T09:02:30.688Z,9.90
2023-05-14T09:03:34.603Z,10.00
2023-05-14T09:04:38.354Z,9.30
2023-05-14T09:05:41.190Z,10.20
2023-05-14T09:06:44.005Z,8.50
2023-05-14T09:07:46.768Z,10.36
2023-05-14T09:08:49.453Z,9.00
2023-05-14T09:09:52.923Z,8.70
2023-05-14T09:10:56.143Z,9.80
2023-05-14T09:12:01.036Z,8.80
2023-05-14T09:13:06.279Z,8.70
2023-05-14T09:14:10.099Z,10.80
2023-05-14T09:15:12.599Z,9.20
2023-05-14T09:16:16.758Z,8.18
2023-05-14T09:17:20.219Z,10.00
2023-05-14T09:18:23.244Z,10.40
2023-05-14T09:19:26.242Z,9.91
2023-05-14T09:20:29.432Z,10.20
2023-05-14T09:21:34.078Z,10.50
2023-05-14T09:22:36.666Z,9.50
2023-05-14T09:23:41.998Z,10.20
2023-05-14T09:24:44.986Z,11.10
2023-05-14T09:25:48.316Z,9.09
2023-05-14T09:26:56.645Z,11.60
2023-05-14T09:27:59.386Z,9.70
2023-05-14T09:29:05.038Z,9.20
2023-05-14T09:30:13.262Z,10.70
2023-05-14T09:32:27.739Z,12.30
2023-05-14T09:34:47.029Z,11.90
2023-05-14T09:35:50.556Z,11.70
2023-05-14T09:37:07.059Z,11.70
2023-05-14T09:38:10.532Z,10.30
2023-05-14T09:39:14.822Z,11.10
2023-05-14T09:40:27.107Z,10.10
2023-05-14T09:41:34.405Z,11.50
2023-05-14T09:42:37.647Z,10.20
2023-05-14T09:44:53.913Z,10.50
2023-05-14T09:45:56.389Z,10.90
2023-05-14T09:47:03.245Z,10.80
2023-05-14T09:48:11.082Z,7.30
2023-05-14T09:49:14.035Z,9.30
2023-05-14T09:50:17.776Z,10.50
2023-05-14T09:51:20.612Z,9.10
2023-05-14T09:52:25.958Z,9.30
2023-05-14T09:53:32.734Z,9.70
2023-05-14T09:54:36.047Z,11.00
2023-05-14T09:55:39.506Z,8.80
2023-05-14T09:57:56.393Z,8.90
2023-05-14T09:58:59.041Z,10.30
2023-05-14T10:00:03.087Z,10.10
2023-05-14T10:01:07.538Z,10.10
2023-05-14T10:02:22.670Z,10.60
2023-05-14T10:03:27.433Z,10.50
2023-05-14T10:04:33.574Z,9.20
2023-05-14T10:05:37.124Z,9.20
2023-05-14T10:06:41.612Z,10.00
2023-05-14T10:07:47.482Z,10.00
2023-05-14T10:08:50.889Z,8.90
2023-05-14T10:09:58.173Z,4.60
2023-05-14T10:11:06.343Z,10.50
2023-05-14T10:12:10.547Z,9.60
2023-05-14T10:13:14.463Z,10.70
2023-05-14T10:14:22.772Z,9.50
2023-05-14T10:15:41.871Z,8.20
2023-05-14T10:16:51.075Z,10.00
2023-05-14T10:18:00.615Z,9.10
2023-05-14T10:19:06.515Z,10.10
2023-05-14T10:20:10.336Z,8.60
2023-05-14T10:21:14.470Z,7.60
2023-05-14T10:22:21.649Z,8.40
2023-05-14T10:24:38.551Z,8.30
2023-05-14T10:25:43.065Z,8.30
2023-05-14T10:26:47.196Z,7.50
2023-05-14T10:27:50.427Z,8.80
2023-05-14T10:28:53.155Z,9.27
2023-05-14T10:29:56.900Z,7.60
2023-05-14T10:31:01.360Z,9.70
2023-05-14T10:32:10.072Z,8.10
2023-05-14T10:33:14.921Z,7.10
2023-05-14T10:34:37.823Z,8.10
2023-05-14T10:36:04.058Z,7.80
2023-05-14T10:38:42.072Z,9.10
2023-05-14T10:39:46.734Z,7.00
2023-05-14T10:40:52.811Z,6.70
2023-05-14T10:41:55.699Z,7.90
2023-05-14T10:44:13.348Z,7.80
2023-05-14T10:46:29.838Z,9.00
2023-05-14T10:47:33.303Z,6.90
2023-05-14T10:48:37.089Z,7.30
2023-05-14T10:49:43.840Z,7.50
2023-05-14T10:50:44.527Z,6.50
2023-05-14T10:51:49.422Z,4.90
2023-05-14T10:52:52.216Z,8.10
2023-05-14T10:53:55.745Z,6.70
2023-05-14T10:55:03.102Z,7.40
2023-05-14T10:57:22.097Z,8.70
2023-05-14T10:58:26.407Z,7.10
2023-05-14T10:59:29.345Z,7.70
2023-05-14T11:00:37.183Z,7.50
2023-05-14T11:01:41.497Z,6.80
2023-05-14T11:02:44.314Z,7.70
2023-05-14T11:03:49.172Z,0.40
2023-05-14T11:06:11.640Z,7.00
2023-05-14T11:07:14.208Z,6.00
2023-05-14T11:08:16.917Z,7.70
2023-05-14T11:09:19.352Z,6.40
2023-05-14T11:10:23.641Z,6.60
2023-05-14T11:11:28.182Z,7.50
2023-05-14T11:12:31.616Z,7.60
2023-05-14T11:13:36.995Z,7.20
2023-05-14T11:14:40.220Z,7.70
2023-05-14T11:15:45.709Z,7.40
2023-05-14T11:16:48.693Z,7.40
2023-05-14T11:17:53.320Z,7.20
2023-05-14T11:19:04.193Z,7.90
2023-05-14T11:20:08.959Z,7.60
2023-05-14T11:21:12.600Z,6.90
2023-05-14T11:22:16.142Z,5.20
2023-05-14T11:23:24.521Z,7.80
2023-05-14T11:24:29.260Z,4.90
2023-05-14T11:25:31.742Z,8.20
2023-05-14T11:26:35.357Z,6.27
2023-05-14T11:27:38.906Z,7.40
2023-05-14T11:28:41.860Z,7.70
2023-05-14T11:30:59.481Z,8.70
2023-05-14T11:33:20.156Z,5.50
2023-05-14T11:34:22.827Z,6.80
2023-05-14T11:35:25.533Z,6.80
2023-05-14T11:36:30.031Z,6.80
2023-05-14T11:37:33.056Z,7.30
2023-05-14T11:38:36.087Z,7.30
2023-05-14T11:39:39.522Z,6.80
2023-05-14T11:40:44.201Z,7.90
2023-05-14T11:42:59.658Z,7.90
2023-05-14T11:44:03.082Z,7.60
2023-05-14T11:46:20.101Z,7.60
2023-05-14T11:47:22.988Z,7.80
2023-05-14T11:48:25.718Z,9.00
2023-05-14T11:49:28.925Z,8.40
2023-05-14T11:50:36.116Z,8.30
2023-05-14T11:51:38.612Z,8.00
2023-05-14T11:52:42.272Z,5.90
2023-05-14T11:53:46.271Z,8.70
2023-05-14T11:54:50.176Z,8.90
2023-05-14T11:57:14.939Z,8.40
2023-05-14T11:58:18.360Z,7.80
2023-05-14T11:59:21.032Z,8.40
2023-05-14T12:00:24.473Z,8.50
2023-05-14T12:01:29.554Z,9.80
2023-05-14T12:02:32.258Z,10.50
2023-05-14T12:03:36.391Z,6.91
2023-05-14T12:04:41.769Z,9.50
2023-05-14T12:07:11.482Z,9.40
2023-05-14T12:08:21.196Z,10.30
2023-05-14T12:09:24.751Z,9.20
2023-05-14T12:10:28.040Z,8.30
2023-05-14T12:11:31.526Z,9.30
2023-05-14T12:13:49.393Z,9.30
2023-05-14T12:14:52.889Z,10.60
2023-05-14T12:16:00.555Z,9.70
2023-05-14T12:18:24.490Z,9.90
2023-05-14T12:19:26.134Z,9.80
2023-05-14T12:20:29.112Z,9.27
2023-05-14T12:21:31.902Z,9.20
2023-05-14T12:22:37.153Z,8.91
2023-05-14T12:23:41.437Z,2.60
2023-05-14T12:26:09.292Z,9.50
2023-05-14T12:27:12.995Z,7.90
2023-05-14T12:28:16.526Z,5.80
2023-05-14T12:29:20.907Z,8.00
2023-05-14T12:30:24.544Z,10.10
2023-05-14T12:32:42.865Z,9.00
2023-05-14T12:33:46.472Z,10.10
2023-05-14T12:34:50.013Z,11.27
2023-05-14T12:37:09.397Z,9.50
2023-05-14T12:38:13.317Z,8.40
2023-05-14T12:39:15.813Z,8.40
2023-05-14T12:40:19.336Z,10.27
2023-05-14T12:41:23.125Z,9.30
2023-05-14T12:42:26.325Z,5.90
2023-05-14T12:43:30.824Z,10.30
2023-05-14T12:44:33.833Z,8.20
2023-05-14T12:45:36.495Z,10.20
2023-05-14T12:46:40.336Z,9.27
2023-05-14T12:47:43.139Z,10.30
2023-05-14T12:48:46.840Z,9.30
2023-05-14T12:49:50.252Z,9.80
2023-05-14T12:50:54.950Z,8.90
2023-05-14T12:52:13.201Z,8.20
2023-05-14T12:53:04.416Z,9.40
2023-05-14T12:54:07.778Z,10.60
2023-05-14T12:55:12.065Z,10.00
2023-05-14T12:57:31.702Z,5.80
2023-05-14T12:58:34.629Z,8.50
2023-05-14T12:59:39.046Z,8.90
2023-05-14T13:00:42.424Z,8.60
2023-05-14T13:03:02.059Z,10.00
2023-05-14T13:04:06.732Z,8.50
2023-05-14T13:05:09.573Z,9.30
2023-05-14T13:06:12.579Z,8.60
2023-05-14T13:07:17.013Z,8.20
2023-05-14T13:08:27.057Z,8.30
2023-05-14T13:09:29.734Z,9.00
2023-05-14T13:10:32.609Z,9.55
2023-05-14T13:11:37.318Z,10.91
2023-05-14T13:12:41.541Z,9.20
2023-05-14T13:13:44.373Z,9.20
2023-05-14T13:14:46.930Z,8.40
2023-05-14T13:15:49.706Z,9.20
2023-05-14T13:16:52.430Z,9.00
2023-05-14T13:17:55.810Z,9.40
2023-05-14T13:18:59.539Z,8.70
2023-05-14T13:20:05.907Z,11.20
2023-05-14T13:21:09.134Z,11.10
2023-05-14T13:22:11.717Z,8.80
2023-05-14T13:23:15.873Z,9.70
2023-05-14T13:24:19.595Z,7.90
2023-05-14T13:25:23.172Z,8.10
2023-05-14T13:26:27.759Z,9.50
2023-05-14T13:27:31.111Z,10.60
2023-05-14T13:28:34.644Z,8.50
2023-05-14T13:29:37.505Z,11.30
2023-05-14T13:30:41.053Z,9.64
2023-05-14T13:31:43.600Z,9.30
2023-05-14T13:32:47.230Z,10.70
2023-05-14T13:33:50.044Z,9.50
2023-05-14T13:34:53.326Z,12.10
2023-05-14T13:35:56.225Z,11.20
2023-05-14T13:36:59.937Z,11.30
2023-05-14T13:38:03.210Z,8.20
2023-05-14T13:39:06.649Z,9.20
2023-05-14T13:40:11.955Z,9.10
2023-05-14T13:41:16.545Z,9.20
2023-05-14T13:42:20.331Z,10.30
2023-05-14T13:43:23.923Z,9.50
2023-05-14T13:44:27.111Z,9.90
2023-05-14T13:45:29.685Z,9.90
2023-05-14T13:46:33.045Z,9.50
2023-05-14T13:47:37.019Z,10.20
2023-05-14T13:48:40.147Z,9.50
2023-05-14T13:49:42.964Z,10.40
2023-05-14T13:50:46.163Z,5.80
2023-05-14T13:51:48.683Z,10.27
2023-05-14T13:52:52.055Z,10.00
2023-05-14T13:53:56.690Z,10.40
2023-05-14T13:55:01.014Z,10.10
2023-05-14T13:56:07.999Z,11.50
2023-05-14T13:57:10.936Z,9.20
2023-05-14T13:58:14.833Z,10.40
2023-05-14T13:59:18.501Z,9.70
2023-05-14T14:00:21.948Z,10.10
2023-05-14T14:01:25.116Z,10.18
2023-05-14T14:02:30.098Z,9.00
2023-05-14T14:03:34.671Z,9.70
2023-05-14T14:04:37.164Z,9.10
2023-05-14T14:05:39.864Z,8.80
2023-05-14T14:06:43.337Z,10.20
2023-05-14T14:07:47.585Z,10.80
2023-05-14T14:08:51.607Z,8.80
2023-05-14T14:09:55.395Z,11.09
2023-05-14T14:10:58.868Z,10.60
2023-05-14T14:12:05.210Z,9.60
2023-05-14T14:13:08.861Z,11.30
2023-05-14T14:14:11.564Z,11.10
2023-05-14T14:15:14.806Z,10.00
2023-05-14T14:16:19.150Z,10.40
2023-05-14T14:17:23.227Z,10.50
2023-05-14T14:18:26.405Z,8.00
2023-05-14T14:19:29.575Z,10.30
2023-05-14T14:20:32.445Z,10.10
2023-05-14T14:21:35.354Z,9.82
2023-05-14T14:22:37.862Z,11.45
2023-05-14T14:23:41.896Z,9.50
2023-05-14T14:24:44.384Z,10.90
2023-05-14T14:25:48.838Z,10.90
2023-05-14T14:26:52.024Z,9.70
2023-05-14T14:27:54.581Z,8.70
2023-05-14T14:28:58.439Z,10.10
2023-05-14T14:30:02.299Z,7.40
2023-05-14T14:31:05.350Z,10.00
2023-05-14T14:32:08.798Z,11.60
2023-05-14T14:33:12.783Z,12.00
2023-05-14T14:34:15.515Z,11.10
2023-05-14T14:35:19.607Z,11.90
2023-05-14T14:36:24.421Z,13.00
2023-05-14T14:37:28.215Z,11.30
2023-05-14T14:38:30.910Z,15.40
2023-05-14T14:39:33.739Z,19.10
2023-05-14T14:40:37.184Z,22.45
2023-05-14T14:41:40.500Z,21.90
2023-05-14T14:42:43.428Z,21.64
2023-05-14T14:43:49.214Z,22.09
2023-05-14T14:44:52.007Z,21.60
2023-05-14T14:45:55.976Z,19.18
2023-05-14T14:46:59.530Z,22.60
2023-05-14T14:48:27.786Z,22.50
2023-05-14T14:49:31.550Z,20.30
2023-05-14T14:50:35.368Z,22.20
2023-05-14T14:51:38.514Z,21.40
2023-05-14T14:52:46.937Z,21.20
2023-05-14T14:53:50.579Z,22.30